createdAt,value
2022-10-17T00:01:00.783Z,14.07
2022-10-17T00:03:28.448Z,10.68
2022-10-17T00:05:56.135Z,10.68
2022-10-17T00:08:24.203Z,11.20
2022-10-17T00:11:00.333Z,13.60
2022-10-17T00:13:28.135Z,11.15
2022-10-17T00:15:55.699Z,12.88
2022-10-17T00:18:22.947Z,10.60
2022-10-17T00:20:50.515Z,9.95
2022-10-17T00:23:18.383Z,14.43
2022-10-17T00:25:45.716Z,10.90
2022-10-17T00:28:13.504Z,9.15
2022-10-17T00:30:41.459Z,8.23
2022-10-17T00:33:08.687Z,8.63
2022-10-17T00:35:36.271Z,10.38
2022-10-17T00:38:03.424Z,10.75
2022-10-17T00:40:30.650Z,10.10
2022-10-17T00:42:57.859Z,10.07
2022-10-17T00:45:30.852Z,11.82
2022-10-17T00:48:04.290Z,10.23
2022-10-17T00:50:32.048Z,16.08
2022-10-17T00:53:01.629Z,10.43
2022-10-17T00:55:31.432Z,10.48
2022-10-17T00:58:00.669Z,13.68
2022-10-17T01:00:27.987Z,11.10
2022-10-17T01:02:55.180Z,8.93
2022-10-17T01:05:22.525Z,10.00
2022-10-17T01:07:51.088Z,10.90
2022-10-17T01:10:18.986Z,9.90
2022-10-17T01:13:11.835Z,10.60
2022-10-17T01:15:57.585Z,9.98
2022-10-17T01:18:52.717Z,15.30
2022-10-17T01:21:48.144Z,10.02
2022-10-17T01:24:25.865Z,11.98
2022-10-17T01:27:02.384Z,10.15
2022-10-17T01:30:00.199Z,9.35
2022-10-17T01:32:36.364Z,13.07
2022-10-17T01:35:20.643Z,15.45
2022-10-17T01:37:56.025Z,12.10
2022-10-17T01:40:27.594Z,10.45
2022-10-17T01:43:13.994Z,9.80
2022-10-17T01:45:55.171Z,11.32
2022-10-17T01:48:24.555Z,12.18
2022-10-17T01:50:54.710Z,10.40
2022-10-17T01:53:27.613Z,11.68
2022-10-17T01:58:30.084Z,9.10
2022-10-17T02:01:00.209Z,13.90
2022-10-17T02:03:31.478Z,13.02
2022-10-17T02:05:58.668Z,10.25
2022-10-17T02:08:46.811Z,12.90
2022-10-17T02:11:17.938Z,10.82
2022-10-17T02:14:07.719Z,15.27
2022-10-17T02:16:49.931Z,11.95
2022-10-17T02:19:36.815Z,14.32
2022-10-17T02:22:37.111Z,10.60
2022-10-17T02:25:41.504Z,10.93
2022-10-17T02:28:35.031Z,10.95
2022-10-17T02:31:21.355Z,11.82
2022-10-17T02:34:17.861Z,8.52
2022-10-17T02:36:54.654Z,11.65
2022-10-17T02:39:23.792Z,9.23
2022-10-17T02:41:52.598Z,8.35
2022-10-17T02:44:20.442Z,11.85
2022-10-17T02:46:52.833Z,11.50
2022-10-17T02:49:25.912Z,9.85
2022-10-17T02:52:04.147Z,8.45
2022-10-17T02:55:13.581Z,15.38
2022-10-17T02:57:44.694Z,12.90
2022-10-17T03:00:15.007Z,10.82
2022-10-17T03:02:47.120Z,12.25
2022-10-17T03:05:20.571Z,12.35
2022-10-17T03:07:47.880Z,13.32
2022-10-17T03:10:15.509Z,8.60
2022-10-17T03:12:42.897Z,11.48
2022-10-17T03:15:11.600Z,11.23
2022-10-17T03:17:39.149Z,13.40
2022-10-17T03:20:08.562Z,10.30
2022-10-17T03:22:35.809Z,15.48
2022-10-17T03:25:04.847Z,8.32
2022-10-17T03:27:34.979Z,9.18
2022-10-17T03:30:02.259Z,9.02
2022-10-17T03:32:33.522Z,9.05
2022-10-17T03:35:00.786Z,10.80
2022-10-17T03:37:28.508Z,16.45
2022-10-17T03:39:56.062Z,12.77
2022-10-17T03:42:23.794Z,9.55
2022-10-17T03:44:50.988Z,10.88
2022-10-17T03:47:18.213Z,11.80
2022-10-17T03:49:46.520Z,13.80
2022-10-17T03:52:15.420Z,10.73
2022-10-17T03:54:42.935Z,14.15
2022-10-17T03:57:10.136Z,10.13
2022-10-17T03:59:38.119Z,11.00
2022-10-17T04:02:10.992Z,9.07
2022-10-17T04:04:38.267Z,13.85
2022-10-17T04:07:05.607Z,8.55
2022-10-17T04:09:34.754Z,15.10
2022-10-17T04:12:12.580Z,10.10
2022-10-17T04:14:40.378Z,12.35
2022-10-17T04:17:07.560Z,10.90
2022-10-17T04:19:36.076Z,10.40
2022-10-17T04:22:04.056Z,11.55
2022-10-17T04:24:34.986Z,12.15
2022-10-17T04:27:08.384Z,11.13
2022-10-17T04:29:39.288Z,11.23
2022-10-17T04:32:17.610Z,11.30
2022-10-17T04:34:51.204Z,13.05
2022-10-17T04:37:20.622Z,11.40
2022-10-17T04:39:50.274Z,7.63
2022-10-17T04:42:17.493Z,12.73
2022-10-17T04:44:44.911Z,12.23
2022-10-17T04:49:42.831Z,8.68
2022-10-17T04:52:11.950Z,8.10
2022-10-17T04:54:48.467Z,10.57
2022-10-17T04:57:15.925Z,10.55
2022-10-17T04:59:51.153Z,7.88
2022-10-17T05:02:38.450Z,14.68
2022-10-17T05:05:06.161Z,10.57
2022-10-17T05:07:33.347Z,9.15
2022-10-17T05:10:00.617Z,12.57
2022-10-17T05:12:29.600Z,9.45
2022-10-17T05:14:57.144Z,12.63
2022-10-17T05:17:26.482Z,9.83
2022-10-17T05:19:53.689Z,9.23
2022-10-17T05:22:20.952Z,9.13
2022-10-17T05:24:48.195Z,10.90
2022-10-17T05:27:15.535Z,12.60
2022-10-17T05:29:42.852Z,13.32
2022-10-17T05:32:21.762Z,9.93
2022-10-17T05:34:48.989Z,10.90
2022-10-17T05:37:16.365Z,11.80
2022-10-17T05:39:51.398Z,18.30
2022-10-17T05:42:19.665Z,11.57
2022-10-17T05:44:47.947Z,12.57
2022-10-17T05:47:17.913Z,9.70
2022-10-17T05:49:50.016Z,10.05
2022-10-17T05:52:22.078Z,14.50
2022-10-17T05:55:00.541Z,10.18
2022-10-17T05:57:28.091Z,18.48
2022-10-17T05:59:56.512Z,17.83
2022-10-17T06:02:33.431Z,8.80
2022-10-17T06:05:03.044Z,11.80
2022-10-17T06:07:30.372Z,12.23
2022-10-17T06:09:59.141Z,8.88
2022-10-17T06:12:26.453Z,13.07
2022-10-17T06:14:54.003Z,11.35
2022-10-17T06:17:21.532Z,10.32
2022-10-17T06:19:49.147Z,11.00
2022-10-17T06:22:16.644Z,9.85
2022-10-17T06:24:44.115Z,11.73
2022-10-17T06:27:12.800Z,10.93
2022-10-17T06:29:41.679Z,9.43
2022-10-17T06:32:12.643Z,14.30
2022-10-17T06:34:43.572Z,19.20
2022-10-17T06:37:11.278Z,11.80
2022-10-17T06:39:40.396Z,10.57
2022-10-17T06:42:12.535Z,9.38
2022-10-17T06:44:47.128Z,14.05
2022-10-17T06:47:20.481Z,17.95
2022-10-17T06:49:48.946Z,12.10
2022-10-17T06:52:25.327Z,12.98
2022-10-17T06:55:11.371Z,16.35
2022-10-17T06:57:46.760Z,13.23
2022-10-17T07:00:43.508Z,14.40
2022-10-17T07:03:12.753Z,11.05
2022-10-17T07:05:39.939Z,12.43
2022-10-17T07:08:07.804Z,11.30
2022-10-17T07:10:38.934Z,11.13
2022-10-17T07:13:08.310Z,20.65
2022-10-17T07:15:37.410Z,17.27
2022-10-17T07:18:05.317Z,15.23
2022-10-17T07:20:32.779Z,15.18
2022-10-17T07:23:00.218Z,13.13
2022-10-17T07:25:28.472Z,13.48
2022-10-17T07:28:00.334Z,9.15
2022-10-17T07:30:28.011Z,13.73
2022-10-17T07:33:09.185Z,13.35
2022-10-17T07:35:40.859Z,13.40
2022-10-17T07:38:08.380Z,16.92
2022-10-17T07:40:35.669Z,16.45
2022-10-17T07:43:03.332Z,11.23
2022-10-17T07:45:31.654Z,19.85
2022-10-17T07:47:59.048Z,14.15
2022-10-17T07:50:26.323Z,19.17
2022-10-17T07:52:53.662Z,19.48
2022-10-17T07:55:20.861Z,15.52
2022-10-17T07:57:48.044Z,15.07
2022-10-17T08:00:15.418Z,17.20
2022-10-17T08:02:42.803Z,15.68
2022-10-17T08:05:09.977Z,13.55
2022-10-17T08:07:37.325Z,12.32
2022-10-17T08:10:05.207Z,39.78
2022-10-17T08:12:34.345Z,31.90
2022-10-17T08:15:01.772Z,13.48
2022-10-17T08:17:29.334Z,31.90
2022-10-17T08:19:56.802Z,20.63
2022-10-17T08:22:24.428Z,23.50
2022-10-17T08:24:52.368Z,25.15
2022-10-17T08:27:24.211Z,21.23
2022-10-17T08:29:54.729Z,33.80
2022-10-17T08:32:25.839Z,21.77
2022-10-17T08:34:53.791Z,16.80
2022-10-17T08:37:21.864Z,31.25
2022-10-17T08:39:49.346Z,48.55
2022-10-17T08:42:54.315Z,29.17
2022-10-17T08:45:33.892Z,32.42
2022-10-17T08:48:05.186Z,21.05
2022-10-17T08:51:17.484Z,19.48
2022-10-17T08:54:11.218Z,12.82
2022-10-17T08:56:48.603Z,19.80
2022-10-17T08:59:27.963Z,14.90
2022-10-17T09:02:27.504Z,17.58
2022-10-17T09:05:16.229Z,17.23
2022-10-17T09:07:50.846Z,12.80
2022-10-17T09:10:29.970Z,18.73
2022-10-17T09:13:18.570Z,13.48
2022-10-17T09:16:14.329Z,11.00
2022-10-17T09:18:44.859Z,13.25
2022-10-17T09:21:28.858Z,11.23
2022-10-17T09:24:09.357Z,13.18
2022-10-17T09:26:39.352Z,12.27
2022-10-17T09:29:19.163Z,12.80
2022-10-17T09:31:52.557Z,14.88
2022-10-17T09:34:21.072Z,16.33
2022-10-17T09:36:50.181Z,30.70
2022-10-17T09:39:19.841Z,19.48
2022-10-17T09:41:53.535Z,13.18
2022-10-17T09:44:23.969Z,17.38
2022-10-17T09:47:09.674Z,24.35
2022-10-17T09:49:42.156Z,19.55
2022-10-17T09:52:19.002Z,16.35
2022-10-17T09:55:04.662Z,17.80
2022-10-17T09:57:51.430Z,14.75
2022-10-17T10:00:28.630Z,17.48
2022-10-17T10:03:21.190Z,24.85
2022-10-17T10:06:18.799Z,25.55
2022-10-17T10:08:50.470Z,16.95
2022-10-17T10:11:18.568Z,20.13
2022-10-17T10:13:48.362Z,21.20
2022-10-17T10:16:32.708Z,14.07
2022-10-17T10:19:00.332Z,26.05
2022-10-17T10:21:28.107Z,18.33
2022-10-17T10:24:10.826Z,17.95
2022-10-17T10:26:44.745Z,22.70
2022-10-17T10:29:31.145Z,26.50
2022-10-17T10:32:21.856Z,17.67
2022-10-17T10:34:53.656Z,17.63
2022-10-17T10:37:34.529Z,24.88
2022-10-17T10:40:04.298Z,17.90
2022-10-17T10:42:39.445Z,17.95
2022-10-17T10:45:35.960Z,18.48
2022-10-17T10:48:49.778Z,19.63
2022-10-17T10:51:39.737Z,20.35
2022-10-17T10:54:30.934Z,25.50
2022-10-17T10:57:00.583Z,21.45
2022-10-17T10:59:31.930Z,23.02
2022-10-17T11:02:14.476Z,27.15
2022-10-17T11:04:47.319Z,24.17
2022-10-17T11:07:22.627Z,26.23
2022-10-17T11:10:17.903Z,21.00
2022-10-17T11:12:52.998Z,20.42
2022-10-17T11:15:28.478Z,28.38
2022-10-17T11:17:59.870Z,18.77
2022-10-17T11:20:29.982Z,20.88
2022-10-17T11:25:52.821Z,18.52
2022-10-17T11:28:21.896Z,24.88
2022-10-17T11:30:57.603Z,18.75
2022-10-17T11:33:31.745Z,20.75
2022-10-17T11:36:03.706Z,35.60
2022-10-17T11:38:45.459Z,34.90
2022-10-17T11:41:17.937Z,35.05
2022-10-17T11:43:53.636Z,30.83
2022-10-17T11:46:27.860Z,26.17
2022-10-17T11:49:20.139Z,21.65
2022-10-17T11:52:03.655Z,17.98
2022-10-17T11:54:37.108Z,21.33
2022-10-17T11:57:38.267Z,23.63
2022-10-17T12:00:20.496Z,18.92
2022-10-17T12:03:21.815Z,19.27
2022-10-17T12:05:52.979Z,16.48
2022-10-17T12:08:39.212Z,17.88
2022-10-17T12:11:38.050Z,19.50
2022-10-17T12:14:34.287Z,18.23
2022-10-17T12:17:02.532Z,16.52
2022-10-17T12:19:37.601Z,15.98
2022-10-17T12:22:22.832Z,15.85
2022-10-17T12:24:59.964Z,14.25
2022-10-17T12:27:36.031Z,15.95
2022-10-17T12:30:30.280Z,22.15
2022-10-17T12:33:06.642Z,36.80
2022-10-17T12:35:37.345Z,17.95
2022-10-17T12:38:17.128Z,16.90
2022-10-17T12:40:54.843Z,11.70
2022-10-17T12:43:27.922Z,18.00
2022-10-17T12:45:55.095Z,15.35
2022-10-17T12:48:34.412Z,19.27
2022-10-17T12:51:34.209Z,15.57
2022-10-17T12:54:01.294Z,17.90
2022-10-17T12:56:31.393Z,21.73
2022-10-17T12:58:59.116Z,19.08
2022-10-17T13:01:32.173Z,20.35
2022-10-17T13:04:05.859Z,20.73
2022-10-17T13:06:40.351Z,20.45
2022-10-17T13:09:31.449Z,20.67
2022-10-17T13:12:00.949Z,18.25
2022-10-17T13:14:28.827Z,21.33
2022-10-17T13:17:01.502Z,18.30
2022-10-17T13:19:40.804Z,17.27
2022-10-17T13:22:22.929Z,23.98
2022-10-17T13:24:52.105Z,15.93
2022-10-17T13:27:39.606Z,15.00
2022-10-17T13:30:32.063Z,15.48
2022-10-17T13:33:00.533Z,17.05
2022-10-17T13:35:48.564Z,14.38
2022-10-17T13:38:22.167Z,16.13
2022-10-17T13:40:50.485Z,20.55
2022-10-17T13:43:21.918Z,19.50
2022-10-17T13:45:54.079Z,17.23
2022-10-17T13:48:24.196Z,17.08
2022-10-17T13:51:01.750Z,12.38
2022-10-17T13:53:34.567Z,17.10
2022-10-17T13:56:28.764Z,18.65
2022-10-17T13:58:56.311Z,17.52
2022-10-17T14:01:26.016Z,12.00
2022-10-17T14:04:07.290Z,13.75
2022-10-17T14:06:44.078Z,11.13
2022-10-17T14:09:21.677Z,12.32
2022-10-17T14:12:08.559Z,14.80
2022-10-17T14:14:52.025Z,17.98
2022-10-17T14:17:25.544Z,15.18
2022-10-17T14:20:30.860Z,14.68
2022-10-17T14:22:50.537Z,13.00
2022-10-17T14:25:31.990Z,16.75
2022-10-17T14:28:12.370Z,12.35
2022-10-17T14:33:30.529Z,11.32
2022-10-17T14:36:00.940Z,15.25
2022-10-17T14:38:28.989Z,11.95
2022-10-17T14:41:40.912Z,13.02
2022-10-17T14:44:02.625Z,18.00
2022-10-17T14:46:30.140Z,15.05
2022-10-17T14:49:04.345Z,13.20
2022-10-17T14:51:40.210Z,16.17
2022-10-17T14:54:22.680Z,15.77
2022-10-17T14:56:52.589Z,36.05
2022-10-17T14:59:48.505Z,15.00
2022-10-17T15:02:11.748Z,14.85
2022-10-17T15:04:39.006Z,17.30
2022-10-17T15:07:06.303Z,17.67
2022-10-17T15:09:33.473Z,14.73
2022-10-17T15:12:05.063Z,15.55
2022-10-17T15:14:32.421Z,16.70
2022-10-17T15:17:00.529Z,15.68
2022-10-17T15:19:27.820Z,19.13
2022-10-17T15:21:55.093Z,16.42
2022-10-17T15:24:22.351Z,20.15
2022-10-17T15:26:49.918Z,24.00
2022-10-17T15:29:17.196Z,13.93
2022-10-17T15:31:44.499Z,13.02
2022-10-17T15:34:11.820Z,15.57
2022-10-17T15:36:40.823Z,15.40
2022-10-17T15:39:10.154Z,11.77
2022-10-17T15:41:37.549Z,15.17
2022-10-17T15:44:05.116Z,15.13
2022-10-17T15:46:35.919Z,11.43
2022-10-17T15:49:10.686Z,14.02
2022-10-17T15:51:38.303Z,13.55
2022-10-17T15:54:06.335Z,12.65
2022-10-17T15:56:43.242Z,12.10
2022-10-17T15:59:20.521Z,15.18
2022-10-17T16:01:48.733Z,14.43
2022-10-17T16:04:15.980Z,17.30
2022-10-17T16:06:43.529Z,13.45
2022-10-17T16:09:11.109Z,15.77
2022-10-17T16:11:41.272Z,18.23
2022-10-17T16:14:13.467Z,16.83
2022-10-17T16:16:41.315Z,16.85
2022-10-17T16:19:09.241Z,17.27
2022-10-17T16:21:39.033Z,17.15
2022-10-17T16:24:06.832Z,15.30
2022-10-17T16:26:34.053Z,15.45
2022-10-17T16:29:03.486Z,15.95
2022-10-17T16:31:33.562Z,16.67
2022-10-17T16:34:02.100Z,17.52
2022-10-17T16:36:35.383Z,16.02
2022-10-17T16:39:02.988Z,14.93
2022-10-17T16:41:37.668Z,15.75
2022-10-17T16:44:07.152Z,31.65
2022-10-17T16:46:36.609Z,16.95
2022-10-17T16:49:05.011Z,19.85
2022-10-17T16:51:33.807Z,14.60
2022-10-17T16:54:01.228Z,14.40
2022-10-17T16:56:32.784Z,15.70
2022-10-17T16:59:01.314Z,12.27
2022-10-17T17:01:31.316Z,15.52
2022-10-17T17:03:58.963Z,17.70
2022-10-17T17:06:29.546Z,11.82
2022-10-17T17:08:57.342Z,17.23
2022-10-17T17:11:26.587Z,16.50
2022-10-17T17:13:58.003Z,14.88
2022-10-17T17:16:27.094Z,11.55
2022-10-17T17:18:57.070Z,12.25
2022-10-17T17:21:24.919Z,19.15
2022-10-17T17:23:58.462Z,17.17
2022-10-17T17:26:31.817Z,17.38
2022-10-17T17:29:00.381Z,19.13
2022-10-17T17:31:29.805Z,15.90
2022-10-17T17:33:57.667Z,17.42
2022-10-17T17:36:32.508Z,21.10
2022-10-17T17:39:01.239Z,16.05
2022-10-17T17:41:28.793Z,14.82
2022-10-17T17:43:56.791Z,18.58
2022-10-17T17:46:24.722Z,20.27
2022-10-17T17:48:52.959Z,19.05
2022-10-17T17:51:26.887Z,17.65
2022-10-17T17:53:57.121Z,17.75
2022-10-17T17:56:26.855Z,17.80
2022-10-17T17:58:59.251Z,17.45
2022-10-17T18:01:29.191Z,18.95
2022-10-17T18:03:58.928Z,16.23
2022-10-17T18:08:05.623Z,19.73
2022-10-17T18:10:33.006Z,23.85
2022-10-17T18:13:00.166Z,15.95
2022-10-17T18:15:27.467Z,17.23
2022-10-17T18:17:54.719Z,18.20
2022-10-17T18:20:22.003Z,16.48
2022-10-17T18:22:49.304Z,23.48
2022-10-17T18:25:16.560Z,25.63
2022-10-17T18:27:43.976Z,18.77
2022-10-17T18:30:11.613Z,23.17
2022-10-17T18:32:38.760Z,17.88
2022-10-17T18:35:09.084Z,24.75
2022-10-17T18:37:36.427Z,23.23
2022-10-17T18:40:03.898Z,22.50
2022-10-17T18:42:31.693Z,21.80
2022-10-17T18:44:59.976Z,23.52
2022-10-17T18:47:27.577Z,20.52
2022-10-17T18:49:55.010Z,21.85
2022-10-17T18:52:22.212Z,31.20
2022-10-17T18:54:49.592Z,32.50
2022-10-17T18:57:16.855Z,25.95
2022-10-17T18:59:44.308Z,19.98
2022-10-17T19:02:13.132Z,22.77
2022-10-17T19:04:40.629Z,25.33
2022-10-17T19:07:08.092Z,41.15
2022-10-17T19:09:35.357Z,32.92
2022-10-17T19:12:02.560Z,27.73
2022-10-17T19:14:30.550Z,23.55
2022-10-17T19:16:59.583Z,23.67
2022-10-17T19:19:26.964Z,24.77
2022-10-17T19:21:54.216Z,21.98
2022-10-17T19:24:26.519Z,22.23
2022-10-17T19:26:55.737Z,30.30
2022-10-17T19:29:26.214Z,23.20
2022-10-17T19:34:28.303Z,24.35
2022-10-17T19:36:55.857Z,25.23
2022-10-17T19:39:23.896Z,22.80
2022-10-17T19:41:52.358Z,24.55
2022-10-17T19:44:19.715Z,24.65
2022-10-17T19:46:49.077Z,25.20
2022-10-17T19:49:17.089Z,18.90
2022-10-17T19:51:44.632Z,17.80
2022-10-17T19:54:12.298Z,14.93
2022-10-17T19:56:40.471Z,21.52
2022-10-17T19:59:08.432Z,21.30
2022-10-17T20:01:38.927Z,19.67
2022-10-17T20:04:07.237Z,23.98
2022-10-17T20:06:34.826Z,18.60
2022-10-17T20:09:02.379Z,20.13
2022-10-17T20:11:30.542Z,22.65
2022-10-17T20:13:59.748Z,17.27
2022-10-17T20:16:29.545Z,15.45
2022-10-17T20:19:02.569Z,16.55
2022-10-17T20:21:36.375Z,20.52
2022-10-17T20:24:06.561Z,15.95
2022-10-17T20:29:13.790Z,15.75
2022-10-17T20:31:42.479Z,14.98
2022-10-17T20:34:12.856Z,13.00
2022-10-17T20:36:40.585Z,15.15
2022-10-17T20:39:08.401Z,15.15
2022-10-17T20:43:05.185Z,16.48
2022-10-17T20:45:50.416Z,17.45
2022-10-17T20:48:19.429Z,16.08
2022-10-17T20:50:46.670Z,15.73
2022-10-17T20:56:09.791Z,16.40
2022-10-17T20:58:37.116Z,16.80
2022-10-17T21:01:06.446Z,17.83
2022-10-17T21:03:39.926Z,17.53
2022-10-17T21:06:09.899Z,19.17
2022-10-17T21:08:37.191Z,19.55
2022-10-17T21:11:28.174Z,21.65
2022-10-17T21:14:00.864Z,18.65
2022-10-17T21:16:29.305Z,20.33
2022-10-17T21:18:56.989Z,24.15
2022-10-17T21:21:32.734Z,19.08
2022-10-17T21:24:02.629Z,16.67
2022-10-17T21:26:32.710Z,21.15
2022-10-17T21:29:05.400Z,20.38
2022-10-17T21:31:37.295Z,19.85
2022-10-17T21:34:10.126Z,17.27
2022-10-17T21:36:37.649Z,19.30
2022-10-17T21:39:05.388Z,15.38
2022-10-17T21:41:32.992Z,16.98
2022-10-17T21:44:02.726Z,18.80
2022-10-17T21:46:30.561Z,18.25
2022-10-17T21:48:59.335Z,17.00
2022-10-17T21:51:27.401Z,16.20
2022-10-17T21:53:55.969Z,15.13
2022-10-17T21:56:28.008Z,14.80
2022-10-17T21:58:55.709Z,17.38
2022-10-17T22:01:25.499Z,18.65
2022-10-17T22:03:55.207Z,16.05
2022-10-17T22:06:43.004Z,16.48
2022-10-17T22:09:16.221Z,19.92
2022-10-17T22:11:46.366Z,17.15
2022-10-17T22:14:16.374Z,20.63
2022-10-17T22:16:45.335Z,20.67
2022-10-17T22:19:14.414Z,17.83
2022-10-17T22:21:41.675Z,16.05
2022-10-17T22:24:12.199Z,19.75
2022-10-17T22:26:39.688Z,20.48
2022-10-17T22:29:07.924Z,19.88
2022-10-17T22:31:35.713Z,18.50
2022-10-17T22:34:04.446Z,20.08
2022-10-17T22:36:33.424Z,17.75
2022-10-17T22:39:00.764Z,15.73
2022-10-17T22:41:28.002Z,16.23
2022-10-17T22:43:55.224Z,15.50
2022-10-17T22:46:22.529Z,18.23
2022-10-17T22:48:50.492Z,17.75
2022-10-17T22:51:17.954Z,18.65
2022-10-17T22:53:45.211Z,18.15
2022-10-17T22:56:14.750Z,16.45
2022-10-17T22:58:42.440Z,17.42
2022-10-17T23:01:13.860Z,17.27
2022-10-17T23:03:41.428Z,16.55
2022-10-17T23:06:08.937Z,17.52
2022-10-17T23:08:36.615Z,18.38
2022-10-17T23:11:04.004Z,19.27
2022-10-17T23:13:31.370Z,17.98
2022-10-17T23:15:59.091Z,14.63
2022-10-17T23:18:27.022Z,15.85
2022-10-17T23:20:54.717Z,18.48
2022-10-17T23:23:22.348Z,20.08
2022-10-17T23:25:50.429Z,18.92
2022-10-17T23:28:17.784Z,15.57
2022-10-17T23:30:45.101Z,19.92
2022-10-17T23:33:13.513Z,17.88
2022-10-17T23:35:41.234Z,17.10
2022-10-17T23:38:08.820Z,14.48
2022-10-17T23:40:36.087Z,17.83
2022-10-17T23:43:04.125Z,16.63
2022-10-17T23:45:34.767Z,15.65
2022-10-17T23:48:05.303Z,17.88
2022-10-17T23:50:32.510Z,17.98
2022-10-17T23:52:59.761Z,14.15
2022-10-17T23:55:27.168Z,18.70
2022-10-17T23:57:54.450Z,15.07
